In Rescue
 
Open Full Screen Window  High Contrast Mode
Wind Gusting 00 knots
14
November 29, 2022 7:49 AM CST
Weather Information
Wind Direction
  350 °
Wind Speed
  14 kt (16 mph)
Wind Gust
  00 kt (0 mph)
Altimeter
29.75 in
Visibility
10 SM
Temperature
-06° C
21° F
Dewpoint
-12° C
10° F
Humidity
63%
1hr Rain Fall
00.00 in.
24hr Rain Fall
00.00 in.
Sky Condition
Overcast @ 8,000 ft
VFR

METAR KBBB 291349Z AUTO 35014KT 10SM OVC080 M06/M12 A2975 RMK AO2

FAA Disclaimer: The data displayed is for advisory purposes only and is not to be used for flight planning or operations.